Ana Sayfa
METAR-TAF:

METAR-TAF

Havaalanları :

Taylorville Municipal Airport

Taylorville, Illinois, Amerika Birleşik Devletleri

Enlem: 39-32-03N, Boylam: 089-19-40W, yükseklik: 190 m

Güncel hava durumu gözlemi

Rapor saat 11:15 UTC de 27 dakika önce yapıldı.
Rüzgar doğudan 10 kt ve 15 kt'a kadar ani rüzgarlar, doğu ve batı/güneybatı arasında değişken
Sıcaklık 23°C
Nem 83%
Basınç 1016 hPa
Görüş mesafesi: 16.1 km
1700 ft yükseklikte parçalı bulutlu

METAR: KTAZ 181115Z AUTO 10010G15KT 090V250 10SM SCT017 23/20 A3001 RMK AO2 T02300202

Saat: 06:42 (11:42 UTC)


TAF: eksik

4.000'den fazla havaalanı için hava durumu gözlemleri ve tahminleri (METAR ve TAF raporları).

Kullanılabilir istasyonlar harita üzerinde sarı ve kırmızı noktalarla gösterilir.

İstasyonun adını görmek için fareyi noktanın üzerinde gezdirin.

Sonrasında hava gözlem ve tahminlerini görmek için tıklayın.

Haritayı değiştirmek için: yaklaştırmak için siyah artı işaretli yeşil düğmeye ve uzaklaştırmak için de eksi işaretli düğmeye hızla tıklayın; bitişik haritalar için yeşil okları kullanın.


METAR-TAF: